Time;durP1;ratioP1;P1;durP2;ratioP2;P2;SDS_P1;SDS_P2;PMS_P1;PMS_P2;Temp;Humidity;BMP_temperature;BMP_pressure;BME280_temperature;BME280_humidity;BME280_pressure;Samples;Min_cycle;Max_cycle;Signal;HPM_P1;HPM_P2
2023/08/03 00:00:38;;;;;;;;;2.67;1.67;;;;;21.60;65.85;100247.88;5035530;28;45498;-78
2023/08/03 00:03:05;;;;;;;;;1.00;1.00;;;;;21.64;64.72;100235.38;5037084;28;45279;-78
2023/08/03 00:05:30;;;;;;;;;1.00;1.00;;;;;21.68;64.96;100244.19;5036686;28;46066;-77
2023/08/03 00:07:56;;;;;;;;;2.00;2.00;;;;;21.63;65.14;100233.66;5035184;28;45329;-78
2023/08/03 00:10:22;;;;;;;;;2.00;2.00;;;;;21.64;65.35;100249.53;5036795;28;45414;-77
2023/08/03 00:12:49;;;;;;;;;2.67;2.00;;;;;21.57;66.12;100244.41;5036953;28;45426;-76
2023/08/03 00:15:15;;;;;;;;;3.00;2.00;;;;;21.65;66.93;100247.78;5036687;28;45994;-78
2023/08/03 00:17:42;;;;;;;;;2.00;1.33;;;;;21.64;66.42;100251.34;5036864;28;45371;-78
2023/08/03 00:20:08;;;;;;;;;2.00;2.00;;;;;21.65;66.72;100239.81;5036426;28;45403;-77
2023/08/03 00:22:35;;;;;;;;;4.67;1.00;;;;;21.80;65.16;100246.59;5036655;28;45494;-78
2023/08/03 00:25:01;;;;;;;;;3.67;2.00;;;;;21.75;66.00;100237.84;5036281;28;46126;-78
2023/08/03 00:27:29;;;;;;;;;3.00;1.00;;;;;21.78;65.97;100237.75;5035013;28;45824;-78
2023/08/03 00:29:55;;;;;;;;;3.67;2.00;;;;;21.81;65.55;100246.56;5036558;28;45277;-78
2023/08/03 00:32:21;;;;;;;;;1.67;1.00;;;;;21.79;65.41;100243.06;5036663;28;45331;-78
2023/08/03 00:34:47;;;;;;;;;1.67;1.00;;;;;21.88;65.39;100243.75;5038149;28;47763;-78
2023/08/03 00:37:13;;;;;;;;;1.00;1.00;;;;;21.46;64.20;100164.88;5040153;28;45364;-78
2023/08/03 00:39:39;;;;;;;;;2.67;1.67;;;;;21.80;64.45;100222.66;5040038;28;45303;-77
2023/08/03 00:42:06;;;;;;;;;2.00;1.33;;;;;21.77;64.35;100223.59;5039811;28;45527;-78
2023/08/03 00:44:32;;;;;;;;;1.00;1.00;;;;;21.81;64.12;100229.75;5038358;28;46133;-78
2023/08/03 00:46:58;;;;;;;;;3.00;1.67;;;;;21.72;64.10;100219.28;5039695;28;45481;-78
2023/08/03 00:49:29;;;;;;;;;1.00;1.00;;;;;21.76;63.90;100235.13;5039810;28;45324;-78
2023/08/03 00:51:55;;;;;;;;;1.00;0.67;;;;;21.75;64.50;100232.53;5039790;28;45481;-78
2023/08/03 00:54:21;;;;;;;;;2.00;1.00;;;;;21.64;64.70;100220.31;5039041;28;46163;-78
2023/08/03 00:56:47;;;;;;;;;1.33;1.00;;;;;21.68;64.78;100228.22;5039539;28;45256;-78
2023/08/03 00:59:12;;;;;;;;;2.67;2.00;;;;;21.59;64.47;100231.97;5039307;28;45434;-78
2023/08/03 01:01:38;;;;;;;;;2.67;1.00;;;;;21.61;64.67;100238.13;5039626;28;45339;-78
2023/08/03 01:04:04;;;;;;;;;2.00;1.00;;;;;21.61;64.41;100235.47;5039160;28;45968;-78
2023/08/03 01:06:30;;;;;;;;;3.00;2.33;;;;;21.65;64.23;100238.03;5039354;28;45430;-78
2023/08/03 01:08:57;;;;;;;;;1.00;1.00;;;;;21.62;64.39;100227.44;5037822;28;45542;-78
2023/08/03 01:11:23;;;;;;;;;2.33;1.00;;;;;21.57;63.97;100224.03;5039474;28;45341;-77
2023/08/03 01:13:49;;;;;;;;;2.33;2.00;;;;;21.56;64.65;100224.03;5039473;28;45411;-78
2023/08/03 01:16:15;;;;;;;;;2.67;1.00;;;;;21.55;64.33;100217.00;5039776;28;45366;-78
2023/08/03 01:18:42;;;;;;;;;1.00;1.00;;;;;21.55;64.25;100222.31;5039481;28;45189;-78
2023/08/03 01:21:09;;;;;;;;;1.00;0.67;;;;;21.55;64.26;100223.19;5039239;28;45595;-78
2023/08/03 01:23:35;;;;;;;;;2.00;1.00;;;;;21.44;65.11;100226.03;5038913;28;46255;-78
2023/08/03 01:26:01;;;;;;;;;1.33;1.00;;;;;21.48;64.92;100212.69;5037559;28;45349;-78
2023/08/03 01:28:26;;;;;;;;;1.67;1.00;;;;;21.49;64.44;100211.78;5039043;28;45421;-78
2023/08/03 01:30:52;;;;;;;;;1.00;0.00;;;;;21.48;64.43;100208.25;5039340;28;45406;-77
2023/08/03 01:33:18;;;;;;;;;0.00;0.00;;;;;21.39;64.79;100198.66;5037795;28;47886;-78
2023/08/03 01:35:44;;;;;;;;;3.00;1.00;;;;;21.41;65.30;100198.63;5037562;28;45514;-78
2023/08/03 01:38:12;;;;;;;;;2.67;2.67;;;;;21.50;64.29;100203.78;5039089;28;45410;-78
2023/08/03 01:40:38;;;;;;;;;1.00;1.00;;;;;21.53;64.13;100202.88;5038971;28;45600;-77
2023/08/03 01:43:03;;;;;;;;;1.33;1.00;;;;;21.56;64.39;100203.66;5038169;28;45387;-77
2023/08/03 01:45:29;;;;;;;;;1.00;1.00;;;;;21.56;63.70;100193.03;5036561;28;45400;-75
2023/08/03 01:47:55;;;;;;;;;1.00;1.00;;;;;21.52;64.67;100201.97;5038868;28;45212;-78
2023/08/03 01:50:20;;;;;;;;;1.00;1.00;;;;;21.44;64.41;100182.66;5039283;28;45473;-78
2023/08/03 01:52:48;;;;;;;;;1.00;0.67;;;;;21.45;64.35;100190.59;5038621;28;45359;-78
2023/08/03 01:55:14;;;;;;;;;1.00;1.00;;;;;21.46;64.78;100191.47;5038671;28;45371;-78
2023/08/03 01:57:39;;;;;;;;;2.00;1.00;;;;;21.50;64.78;100198.47;5037292;28;45432;-78
2023/08/03 02:00:05;;;;;;;;;0.67;0.67;;;;;21.41;64.88;100174.72;5037566;28;45514;-78
2023/08/03 02:02:31;;;;;;;;;3.00;1.00;;;;;21.47;64.60;100187.91;5036555;28;46265;-78
2023/08/03 02:04:57;;;;;;;;;3.00;1.00;;;;;21.43;64.07;100172.94;5038495;28;45461;-78
2023/08/03 02:07:54;;;;;;;;;0.67;0.00;;;;;21.48;64.03;100175.50;5039016;28;45252;-78
2023/08/03 02:10:22;;;;;;;;;1.33;1.00;;;;;21.44;64.44;100178.19;5039087;28;45301;-79
2023/08/03 02:12:47;;;;;;;;;2.67;1.00;;;;;21.48;63.66;100186.13;5038119;28;45507;-78
2023/08/03 02:15:13;;;;;;;;;1.00;0.00;;;;;21.43;65.01;100186.22;5038284;28;45326;-77
2023/08/03 02:17:43;;;;;;;;;2.00;1.00;;;;;21.48;63.96;100200.28;5038422;28;45415;-78
2023/08/03 02:20:09;;;;;;;;;2.33;1.00;;;;;21.47;64.95;100208.28;5038348;28;45300;-78
2023/08/03 02:22:35;;;;;;;;;2.00;2.00;;;;;21.40;65.62;100188.91;5037731;28;46562;-77
2023/08/03 02:25:01;;;;;;;;;2.00;2.00;;;;;21.38;65.34;100185.41;5037820;28;45421;-78
2023/08/03 02:27:27;;;;;;;;;2.00;1.00;;;;;21.45;64.90;100193.25;5038205;28;45553;-78
2023/08/03 02:29:52;;;;;;;;;1.33;0.33;;;;;21.45;65.07;100195.91;5038510;28;45427;-78
2023/08/03 02:32:19;;;;;;;;;1.00;1.00;;;;;21.51;64.75;100194.91;5036497;28;47057;-77
2023/08/03 02:34:45;;;;;;;;;2.00;1.00;;;;;21.43;65.98;100184.44;5037800;28;45378;-78
2023/08/03 02:37:10;;;;;;;;;1.67;1.00;;;;;21.50;66.18;100197.59;5037765;28;45345;-78
2023/08/03 02:39:36;;;;;;;;;1.00;1.00;;;;;21.47;66.09;100176.38;5037865;28;45412;-77
2023/08/03 02:42:02;;;;;;;;;1.33;1.00;;;;;21.52;65.61;100183.34;5036404;28;46188;-77
2023/08/03 02:44:27;;;;;;;;;1.00;1.00;;;;;21.44;65.83;100177.34;5036416;28;45374;-78
2023/08/03 02:46:53;;;;;;;;;2.00;1.00;;;;;21.53;65.10;100178.94;5038176;28;45331;-77
2023/08/03 02:49:18;;;;;;;;;0.67;0.00;;;;;21.53;65.09;100182.47;5038062;28;45221;-77
2023/08/03 02:51:44;;;;;;;;;1.00;1.00;;;;;21.53;64.88;100181.59;5037438;28;45241;-77
2023/08/03 02:54:09;;;;;;;;;1.00;1.00;;;;;21.47;65.61;100193.22;5037828;28;45300;-77
2023/08/03 02:56:35;;;;;;;;;3.67;1.33;;;;;21.39;66.68;100197.78;5038064;28;45405;-78
2023/08/03 02:59:01;;;;;;;;;2.00;1.00;;;;;21.42;66.66;100190.59;5038052;28;45424;-78
2023/08/03 03:01:26;;;;;;;;;1.00;1.00;;;;;21.43;66.18;100188.88;5036288;28;45398;-77
2023/08/03 03:03:52;;;;;;;;;1.00;1.00;;;;;21.48;65.92;100197.63;5037700;28;45248;-77
2023/08/03 03:06:17;;;;;;;;;2.67;1.00;;;;;21.45;65.77;100190.59;5036459;28;45577;-76
2023/08/03 03:08:43;;;;;;;;;2.33;1.33;;;;;21.40;66.02;100191.56;5037774;28;45438;-77
2023/08/03 03:11:09;;;;;;;;;2.00;2.00;;;;;21.36;66.23;100187.22;5037329;28;45415;-77
2023/08/03 03:13:34;;;;;;;;;2.00;1.67;;;;;21.31;66.49;100182.00;5035840;28;45498;-78
2023/08/03 03:16:00;;;;;;;;;1.00;1.00;;;;;21.21;66.50;100191.06;5037314;28;45220;-77
2023/08/03 03:18:25;;;;;;;;;1.67;1.00;;;;;21.15;66.96;100191.16;5037849;28;45572;-77
2023/08/03 03:20:51;;;;;;;;;1.33;1.00;;;;;21.04;66.67;100178.97;5037112;28;45489;-78
2023/08/03 03:23:16;;;;;;;;;0.67;0.67;;;;;20.75;67.90;100175.97;5036014;28;45324;-77
2023/08/03 03:25:42;;;;;;;;;2.00;0.00;;;;;20.79;67.78;100193.59;5037088;28;45316;-78
2023/08/03 03:28:08;;;;;;;;;2.00;0.33;;;;;20.77;67.40;100169.75;5037539;28;45307;-77
2023/08/03 03:30:33;;;;;;;;;3.00;1.00;;;;;20.78;67.03;100176.78;5037159;28;45471;-78
2023/08/03 03:33:00;;;;;;;;;1.33;1.00;;;;;20.81;67.15;100187.38;5037048;28;45268;-77
2023/08/03 03:35:25;;;;;;;;;0.00;0.00;;;;;20.81;67.55;100176.75;5037565;28;45401;-78
2023/08/03 03:37:51;;;;;;;;;2.00;1.00;;;;;20.92;67.59;100189.81;5036019;28;45550;-77
2023/08/03 03:40:17;;;;;;;;;2.00;1.00;;;;;20.98;67.04;100191.47;5036969;28;46224;-77
2023/08/03 03:42:42;;;;;;;;;1.00;0.00;;;;;20.97;66.49;100184.41;5037024;28;45515;-77
2023/08/03 03:45:08;;;;;;;;;1.67;1.00;;;;;21.00;66.51;100193.19;5035886;28;45467;-77
2023/08/03 03:47:34;;;;;;;;;1.67;0.00;;;;;21.03;65.90;100193.16;5036974;28;45522;-77
2023/08/03 03:50:00;;;;;;;;;1.00;0.33;;;;;20.99;66.30;100185.25;5036612;28;46059;-77
2023/08/03 03:52:25;;;;;;;;;1.00;1.00;;;;;21.05;66.27;100195.78;5035909;28;45475;-77
2023/08/03 03:54:51;;;;;;;;;0.33;0.00;;;;;20.96;67.70;100195.94;5035756;28;45281;-77
2023/08/03 03:57:17;;;;;;;;;1.00;0.33;;;;;20.86;67.13;100193.44;5037399;28;45276;-78
2023/08/03 03:59:42;;;;;;;;;0.00;0.00;;;;;20.74;67.24;100177.75;5036763;28;45859;-77
2023/08/03 04:02:08;;;;;;;;;1.00;1.00;;;;;20.80;67.06;100182.94;5035373;28;45488;-77
2023/08/03 04:04:34;;;;;;;;;1.67;1.00;;;;;20.74;67.47;100172.44;5036688;28;45410;-77
2023/08/03 04:06:59;;;;;;;;;3.67;2.00;;;;;20.74;67.91;100164.47;5035924;28;45506;-77
2023/08/03 04:09:25;;;;;;;;;1.00;1.00;;;;;20.93;67.57;100190.69;5037522;28;46257;-77
2023/08/03 04:11:51;;;;;;;;;1.67;1.00;;;;;20.91;68.00;100195.16;5040107;28;45328;-78
2023/08/03 04:14:16;;;;;;;;;1.00;1.00;;;;;20.86;68.18;100187.28;5040227;28;45375;-77
2023/08/03 04:16:42;;;;;;;;;2.33;1.00;;;;;20.90;67.30;100185.44;5040194;28;45485;-78
2023/08/03 04:19:07;;;;;;;;;0.67;0.67;;;;;20.95;67.21;100187.13;5039853;28;45483;-77
2023/08/03 04:21:33;;;;;;;;;2.33;1.00;;;;;20.88;67.57;100177.50;5039867;28;45533;-77
2023/08/03 04:23:59;;;;;;;;;1.00;1.00;;;;;20.97;67.86;100203.91;5039184;28;45567;-78
2023/08/03 04:26:24;;;;;;;;;1.33;0.00;;;;;20.98;68.00;100210.06;5040332;28;45407;-77
2023/08/03 04:28:50;;;;;;;;;1.00;0.67;;;;;21.03;68.04;100203.78;5038541;28;46374;-77
2023/08/03 04:31:15;;;;;;;;;1.67;1.00;;;;;21.01;67.25;100186.13;5039813;28;45455;-78
2023/08/03 04:33:41;;;;;;;;;1.00;0.67;;;;;21.09;67.64;100208.09;5038697;28;45498;-77
2023/08/03 04:36:07;;;;;;;;;1.67;0.67;;;;;21.12;67.32;100201.84;5040225;28;45538;-75
2023/08/03 04:38:32;;;;;;;;;2.33;1.00;;;;;21.00;68.09;100195.84;5039803;28;45477;-77
2023/08/03 04:41:01;;;;;;;;;1.00;1.00;;;;;21.05;67.74;100209.06;5038828;28;45396;-77
2023/08/03 04:43:29;;;;;;;;;0.00;0.00;;;;;20.88;67.27;100185.47;5039977;28;45464;-77
2023/08/03 04:45:55;;;;;;;;;1.00;0.33;;;;;20.94;66.94;100185.34;5039848;28;45257;-77
2023/08/03 04:48:21;;;;;;;;;1.00;1.00;;;;;20.98;67.88;100207.41;5039271;28;45964;-77
2023/08/03 04:50:46;;;;;;;;;2.00;1.00;;;;;20.89;66.99;100184.56;5039707;28;45458;-77
2023/08/03 04:53:12;;;;;;;;;1.33;0.00;;;;;21.00;66.96;100206.47;5039690;28;45224;-77
2023/08/03 04:55:37;;;;;;;;;1.33;1.00;;;;;20.98;66.26;100194.16;5038563;28;45514;-77
2023/08/03 04:58:03;;;;;;;;;3.67;2.00;;;;;20.67;67.00;100149.56;5039456;28;46062;-77
2023/08/03 05:00:29;;;;;;;;;1.00;1.00;;;;;20.91;66.62;100197.81;5039769;28;45269;-78
2023/08/03 05:02:54;;;;;;;;;2.00;0.33;;;;;20.93;67.15;100202.19;5039332;28;45474;-77
2023/08/03 05:05:20;;;;;;;;;2.00;2.00;;;;;20.94;67.48;100208.38;5039776;28;45587;-75
2023/08/03 05:07:46;;;;;;;;;1.33;0.00;;;;;20.90;67.74;100212.00;5039331;28;45514;-75
2023/08/03 05:10:11;;;;;;;;;1.00;0.00;;;;;20.79;68.23;100205.09;5039390;28;45550;-77
2023/08/03 05:12:41;;;;;;;;;1.67;1.00;;;;;20.94;67.62;100214.56;5039281;28;45493;-78
2023/08/03 05:15:09;;;;;;;;;2.00;1.00;;;;;20.93;67.39;100227.84;5039379;28;45544;-77
2023/08/03 05:17:35;;;;;;;;;1.00;1.00;;;;;20.93;67.64;100203.97;5037721;28;45497;-77
2023/08/03 05:20:01;;;;;;;;;2.00;1.00;;;;;21.01;67.04;100210.91;5038335;28;45472;-77
2023/08/03 05:22:26;;;;;;;;;2.67;0.00;;;;;21.05;66.54;100211.72;5037913;28;45428;-76
2023/08/03 05:24:52;;;;;;;;;2.00;1.00;;;;;21.02;66.54;100202.00;5039422;28;45289;-76
2023/08/03 05:27:18;;;;;;;;;3.00;1.00;;;;;20.94;66.19;100187.13;5039027;28;45393;-77
2023/08/03 05:29:44;;;;;;;;;3.00;3.00;;;;;21.10;66.31;100212.50;5038608;28;45306;-78
2023/08/03 05:32:10;;;;;;;;;2.00;1.33;;;;;21.09;66.28;100207.22;5039207;28;45424;-78
2023/08/03 05:34:36;;;;;;;;;1.33;1.00;;;;;21.17;66.48;100214.16;5038308;28;45531;-77
2023/08/03 05:37:01;;;;;;;;;2.33;2.00;;;;;21.17;66.25;100207.94;5038876;28;45446;-77
2023/08/03 05:39:27;;;;;;;;;1.00;1.00;;;;;21.23;65.35;100207.84;5038502;28;45401;-76
2023/08/03 05:41:53;;;;;;;;;3.00;1.67;;;;;21.25;65.25;100204.25;5038663;28;45616;-78
2023/08/03 05:44:19;;;;;;;;;3.67;2.00;;;;;21.29;64.90;100212.13;5038678;28;45314;-75
2023/08/03 05:46:45;;;;;;;;;1.00;1.00;;;;;21.23;64.90;100206.06;5053983;28;45344;-77
2023/08/03 05:49:12;;;;;;;;;1.33;1.00;;;;;21.32;66.02;100220.06;5037694;28;45536;-76
2023/08/03 05:51:39;;;;;;;;;2.00;1.33;;;;;21.47;65.57;100227.78;5036765;28;45498;-77
2023/08/03 05:54:05;;;;;;;;;2.67;1.00;;;;;21.63;65.89;100239.84;5039159;28;45316;-77
2023/08/03 05:56:34;;;;;;;;;3.00;1.00;;;;;21.64;65.27;100222.09;5037287;28;45450;-76
2023/08/03 05:59:01;;;;;;;;;2.00;1.00;;;;;21.64;65.14;100230.06;5038856;28;45380;-78
2023/08/03 06:01:26;;;;;;;;;2.00;1.00;;;;;21.60;65.46;100231.03;5038550;28;45331;-78
2023/08/03 06:03:53;;;;;;;;;2.33;1.67;;;;;21.59;65.54;100224.88;5038478;28;45248;-76
2023/08/03 06:06:20;;;;;;;;;2.33;2.00;;;;;21.62;65.88;100226.56;5038269;28;45300;-77
2023/08/03 06:08:53;;;;;;;;;1.00;1.00;;;;;21.65;65.17;100222.06;5038538;28;45392;-75
2023/08/03 06:11:20;;;;;;;;;3.00;2.00;;;;;21.67;65.60;100223.84;5038375;28;45309;-75
2023/08/03 06:13:47;;;;;;;;;2.67;2.00;;;;;21.68;65.79;100231.75;5038527;28;45405;-76
2023/08/03 06:16:15;;;;;;;;;2.00;1.00;;;;;21.69;66.06;100240.63;5038220;28;45486;-76
2023/08/03 06:18:49;;;;;;;;;3.00;2.00;;;;;21.62;65.40;100246.06;5038174;28;45460;-76
2023/08/03 06:21:16;;;;;;;;;1.33;1.00;;;;;21.59;65.61;100246.13;5038163;28;45474;-76
2023/08/03 06:23:48;;;;;;;;;1.00;1.00;;;;;21.52;66.17;100247.16;5037104;28;45532;-75
2023/08/03 06:26:16;;;;;;;;;3.33;2.33;;;;;21.58;66.51;100262.97;5037931;28;45457;-73
2023/08/03 06:28:43;;;;;;;;;3.00;2.33;;;;;21.62;67.12;100269.09;5038020;28;45485;-75
2023/08/03 06:31:17;;;;;;;;;1.67;1.67;;;;;21.56;67.31;100267.44;5037919;28;45336;-75
2023/08/03 06:33:44;;;;;;;;;2.00;1.00;;;;;21.54;67.00;100268.38;5038102;28;45461;-76
2023/08/03 06:36:17;;;;;;;;;2.00;1.67;;;;;21.53;67.39;100266.66;5038217;28;45442;-76
2023/08/03 06:38:43;;;;;;;;;1.67;1.00;;;;;21.49;66.92;100280.88;5037944;28;45453;-77
2023/08/03 06:41:09;;;;;;;;;1.00;1.00;;;;;21.46;66.87;100287.13;5037992;28;45236;-76
2023/08/03 06:43:36;;;;;;;;;3.00;2.67;;;;;21.42;67.64;100301.34;5036542;28;45324;-76
2023/08/03 06:46:02;;;;;;;;;1.00;0.67;;;;;21.39;67.38;100301.41;5037991;28;45223;-77
2023/08/03 06:48:28;;;;;;;;;1.00;1.00;;;;;21.45;66.72;100286.25;5037552;28;45173;-77
2023/08/03 06:50:54;;;;;;;;;2.00;1.67;;;;;21.43;66.82;100303.16;5037877;28;45317;-77
2023/08/03 06:53:21;;;;;;;;;1.33;1.00;;;;;21.44;66.32;100294.25;5036669;28;45428;-77
2023/08/03 06:55:48;;;;;;;;;3.33;3.33;;;;;21.48;66.33;100305.72;5037442;28;45490;-77
2023/08/03 06:58:14;;;;;;;;;1.00;0.00;;;;;21.46;66.25;100319.03;5037506;28;45395;-77
2023/08/03 07:00:41;;;;;;;;;2.00;1.00;;;;;21.39;66.37;100315.56;5036690;28;45355;-76
2023/08/03 07:03:08;;;;;;;;;1.00;1.00;;;;;21.44;65.99;100320.84;5038110;28;45312;-77
2023/08/03 07:05:33;;;;;;;;;5.00;4.00;;;;;21.53;65.48;100310.03;5037199;28;46226;-77
2023/08/03 07:07:59;;;;;;;;;1.33;0.67;;;;;21.60;65.17;100310.78;5037266;28;45351;-76
2023/08/03 07:10:25;;;;;;;;;3.00;1.00;;;;;21.73;65.35;100303.47;5036056;28;45363;-77
2023/08/03 07:12:52;;;;;;;;;1.00;1.00;;;;;21.87;64.35;100306.72;5037609;28;45414;-77
2023/08/03 07:15:18;;;;;;;;;1.00;1.00;;;;;22.00;64.37;100323.28;5035633;28;46173;-77
2023/08/03 07:17:44;;;;;;;;;1.00;0.67;;;;;22.13;63.67;100308.81;5037409;28;45497;-77
2023/08/03 07:20:11;;;;;;;;;2.33;2.00;;;;;22.23;63.33;100323.69;5037273;28;45462;-77
2023/08/03 07:22:37;;;;;;;;;1.33;1.00;;;;;22.19;63.13;100313.16;5036392;28;45482;-76
2023/08/03 07:25:04;;;;;;;;;0.67;0.00;;;;;22.27;63.58;100324.53;5036007;28;45995;-77
2023/08/03 07:27:30;;;;;;;;;2.67;1.00;;;;;23.58;61.37;100313.38;5035026;28;45554;-78
2023/08/03 07:29:56;;;;;;;;;0.67;0.33;;;;;26.92;55.10;100319.00;5035253;28;45450;-77
2023/08/03 07:32:22;;;;;;;;;0.00;0.00;;;;;27.86;50.71;100308.72;5036429;28;45580;-76
2023/08/03 07:34:48;;;;;;;;;1.00;1.00;;;;;29.44;47.75;100289.41;5035804;28;45473;-77
2023/08/03 07:37:13;;;;;;;;;2.00;1.00;;;;;28.76;47.71;100307.16;5036190;28;45480;-77
2023/08/03 07:39:40;;;;;;;;;0.33;0.33;;;;;29.02;48.03;100328.31;5036799;28;45469;-76
2023/08/03 07:42:06;;;;;;;;;0.67;0.00;;;;;29.10;46.03;100321.59;5036966;28;45337;-77
2023/08/03 07:44:32;;;;;;;;;0.00;0.00;;;;;30.91;44.53;100321.75;5035327;28;45323;-77
2023/08/03 07:46:58;;;;;;;;;0.67;0.00;;;;;32.34;40.76;100303.19;5036214;28;45370;-77
2023/08/03 07:49:23;;;;;;;;;1.00;1.00;;;;;33.27;39.17;100313.22;5034609;28;45178;-75
2023/08/03 07:51:49;;;;;;;;;1.00;0.00;;;;;34.29;38.83;100295.25;5035171;28;45361;-78
2023/08/03 07:54:15;;;;;;;;;1.00;1.00;;;;;34.33;34.49;100302.19;5034830;28;46206;-78
2023/08/03 07:56:41;;;;;;;;;0.00;0.00;;;;;35.56;34.75;100297.47;5034040;28;45578;-76
2023/08/03 07:59:10;;;;;;;;;0.33;0.00;;;;;36.74;30.66;100284.31;5035280;28;45500;-78
2023/08/03 08:01:36;;;;;;;;;0.00;0.00;;;;;37.43;31.12;100283.88;5035568;28;45328;-78
2023/08/03 08:04:02;;;;;;;;;1.67;0.00;;;;;37.50;31.02;100293.22;5034789;28;46152;-78
2023/08/03 08:06:28;;;;;;;;;0.00;0.00;;;;;38.00;29.71;100284.31;5035507;28;45586;-75
2023/08/03 08:08:54;;;;;;;;;0.00;0.00;;;;;37.38;31.69;100281.53;5034805;28;45215;-75
2023/08/03 08:11:20;;;;;;;;;0.00;0.00;;;;;35.44;33.20;100277.56;5034446;28;45622;-75
2023/08/03 08:13:45;;;;;;;;;2.00;0.00;;;;;33.94;35.12;100290.50;5035848;28;46151;-76
2023/08/03 08:16:13;;;;;;;;;2.33;1.00;;;;;32.49;37.99;100303.06;5036297;28;45456;-77
2023/08/03 08:18:51;;;;;;;;;2.00;0.67;;;;;31.07;41.08;100324.41;5034799;28;46042;-77
2023/08/03 08:21:17;;;;;;;;;0.33;0.33;;;;;30.10;43.03;100313.72;5036328;28;45312;-76
2023/08/03 08:23:43;;;;;;;;;1.00;0.67;;;;;29.44;44.22;100319.03;5034918;28;46268;-77
2023/08/03 08:26:13;;;;;;;;;5.33;4.00;;;;;29.10;44.50;100305.44;5035237;28;45300;-77
2023/08/03 08:28:40;;;;;;;;;1.00;1.00;;;;;29.04;45.38;100335.34;5033152;28;45710;-77
2023/08/03 08:31:06;;;;;;;;;2.00;1.67;;;;;28.55;45.40;100303.72;5035464;28;45188;-83
2023/08/03 08:33:32;;;;;;;;;4.00;3.00;;;;;28.29;46.19;100331.81;5035230;28;45500;-75
2023/08/03 08:35:58;;;;;;;;;0.67;0.67;;;;;27.71;47.91;100359.44;5034207;28;45564;-76
2023/08/03 08:38:24;;;;;;;;;2.00;1.00;;;;;27.27;48.13;100331.88;5033053;28;45463;-75
2023/08/03 08:40:49;;;;;;;;;2.00;1.00;;;;;26.94;49.48;100381.44;5032124;28;45618;-77
2023/08/03 08:43:18;;;;;;;;;3.00;2.00;;;;;26.76;50.00;100388.44;5033091;28;45365;-75
2023/08/03 08:45:44;;;;;;;;;1.00;1.00;;;;;26.43;50.35;100387.03;5033338;28;45366;-75
2023/08/03 08:48:10;;;;;;;;;1.00;1.00;;;;;26.36;51.24;100381.00;5030536;28;45355;-80
2023/08/03 08:50:35;;;;;;;;;1.00;0.00;;;;;26.19;51.03;100395.06;5015883;28;45821;-74
2023/08/03 08:53:01;;;;;;;;;1.00;1.00;;;;;25.98;51.45;100378.88;5034431;28;45899;-74
2023/08/03 08:55:29;;;;;;;;;1.00;1.00;;;;;25.88;51.79;100396.13;5036396;28;45421;-75
2023/08/03 08:57:56;;;;;;;;;2.33;1.00;;;;;25.78;52.35;100392.03;5038541;28;45462;-74
2023/08/03 09:00:26;;;;;;;;;0.00;0.00;;;;;25.59;52.80;100381.13;5039062;28;45186;-75
2023/08/03 09:03:01;;;;;;;;;2.00;0.67;;;;;25.50;51.79;100384.97;5037041;28;47936;-74
2023/08/03 09:05:28;;;;;;;;;0.00;0.00;;;;;25.50;51.52;100376.94;5038274;28;45509;-74
2023/08/03 09:08:05;;;;;;;;;0.00;0.00;;;;;25.40;51.31;100379.06;5038493;28;45487;-74
2023/08/03 09:10:49;;;;;;;;;1.33;1.00;;;;;25.28;53.72;100390.16;5038633;28;45336;-74
2023/08/03 09:13:26;;;;;;;;;1.00;1.00;;;;;25.46;52.48;100383.31;5038987;28;45568;-74
2023/08/03 09:15:52;;;;;;;;;1.00;0.00;;;;;25.57;52.05;100380.31;5038691;28;45602;-74
2023/08/03 09:18:19;;;;;;;;;0.00;0.00;;;;;25.36;52.81;100397.94;5038785;28;45374;-74
2023/08/03 09:20:45;;;;;;;;;1.00;0.00;;;;;25.27;52.53;100398.25;5037552;28;45298;-74
2023/08/03 09:23:27;;;;;;;;;7.33;5.00;;;;;24.90;54.35;100394.06;5038476;28;45527;-74
2023/08/03 09:25:53;;;;;;;;;3.00;2.33;;;;;24.52;54.79;100399.66;5038701;28;45396;-74
2023/08/03 09:28:18;;;;;;;;;0.00;0.00;;;;;24.25;54.42;100406.66;5038323;28;45322;-74
2023/08/03 09:30:50;;;;;;;;;1.00;1.00;;;;;24.25;54.54;100414.66;5038528;28;45340;-73
2023/08/03 09:33:15;;;;;;;;;2.00;2.00;;;;;24.13;55.76;100415.00;5037918;28;45538;-74
2023/08/03 09:35:41;;;;;;;;;1.00;1.00;;;;;24.13;56.19;100431.03;5037913;28;45818;-74
2023/08/03 09:38:23;;;;;;;;;1.00;1.00;;;;;24.22;56.26;100425.44;5036704;28;45429;-74
2023/08/03 09:40:50;;;;;;;;;1.33;1.00;;;;;24.21;55.68;100421.00;5038609;28;45319;-74
2023/08/03 09:43:17;;;;;;;;;3.00;2.00;;;;;24.20;56.25;100412.13;5038322;28;45399;-74
2023/08/03 09:45:45;;;;;;;;;1.00;0.67;;;;;24.34;54.98;100410.88;5037928;28;45390;-74
2023/08/03 09:48:12;;;;;;;;;1.00;1.00;;;;;24.52;54.56;100409.50;5036702;28;45516;-73
2023/08/03 09:50:40;;;;;;;;;1.00;1.00;;;;;24.66;54.39;100403.72;5037631;28;45430;-74
2023/08/03 09:53:14;;;;;;;;;0.00;0.00;;;;;24.66;54.03;100422.44;5038098;28;46246;-73
2023/08/03 09:55:46;;;;;;;;;1.00;1.00;;;;;24.61;54.46;100417.19;5040216;28;45293;-74
2023/08/03 09:58:19;;;;;;;;;0.33;0.00;;;;;24.58;54.36;100406.63;5039250;28;45461;-74
2023/08/03 10:00:46;;;;;;;;;2.00;1.00;;;;;24.64;54.48;100408.25;5037921;28;45447;-74
2023/08/03 10:03:18;;;;;;;;;1.00;0.00;;;;;24.47;54.35;100357.97;5036740;28;45300;-73
2023/08/03 10:05:48;;;;;;;;;1.00;0.00;;;;;25.03;53.58;100411.47;5036881;28;45453;-74
2023/08/03 10:08:22;;;;;;;;;3.00;1.00;;;;;25.10;54.18;100401.44;5037310;28;45496;-74
2023/08/03 10:10:48;;;;;;;;;1.00;1.00;;;;;25.30;53.59;100406.16;5036157;28;45486;-74
2023/08/03 10:13:14;;;;;;;;;3.00;3.00;;;;;25.14;54.28;100411.13;5036032;28;47321;-74
2023/08/03 10:15:41;;;;;;;;;2.00;1.67;;;;;24.97;55.03;100423.22;5036283;28;45892;-74
2023/08/03 10:18:07;;;;;;;;;0.67;0.00;;;;;24.97;54.44;100422.34;5037958;28;45347;-73
2023/08/03 10:20:35;;;;;;;;;11.00;9.00;;;;;25.10;54.49;100420.16;5038134;28;45505;-73
2023/08/03 10:23:16;;;;;;;;;1.00;1.00;;;;;25.09;53.60;100429.09;5035147;28;46457;-74
2023/08/03 10:26:02;;;;;;;;;0.33;0.33;;;;;25.06;54.26;100431.88;5036045;28;45486;-74
2023/08/03 10:28:43;;;;;;;;;2.67;1.67;;;;;24.99;54.52;100425.84;5036202;28;45328;-73
2023/08/03 10:31:14;;;;;;;;;2.00;1.33;;;;;24.88;54.77;100433.31;5037731;28;45227;-74
2023/08/03 10:33:47;;;;;;;;;2.00;2.00;;;;;24.82;55.06;100423.69;5036399;28;46802;-74
2023/08/03 10:36:28;;;;;;;;;1.33;1.00;;;;;24.82;55.11;100429.03;5037045;28;45320;-74
2023/08/03 10:38:59;;;;;;;;;1.00;0.00;;;;;24.79;54.90;100432.69;5037232;28;45438;-74
2023/08/03 10:41:27;;;;;;;;;1.00;0.00;;;;;24.52;55.70;100433.53;5037317;28;45331;-74
2023/08/03 10:44:20;;;;;;;;;1.00;0.67;;;;;24.45;56.36;100446.13;5037069;28;46115;-74
2023/08/03 10:46:56;;;;;;;;;3.33;2.00;;;;;24.52;55.43;100436.19;5036784;28;45445;-74
2023/08/03 10:49:22;;;;;;;;;1.00;1.00;;;;;24.81;54.85;100433.53;5037934;28;45292;-74
2023/08/03 10:52:24;;;;;;;;;24.33;22.67;;;;;25.18;54.51;100429.66;5036402;28;45673;-74
2023/08/03 10:54:51;;;;;;;;;6.67;6.67;;;;;25.40;55.33;100427.19;5037140;28;46004;-73
2023/08/03 10:57:18;;;;;;;;;2.00;2.00;;;;;25.76;54.06;100423.31;5036825;28;45546;-74
2023/08/03 10:59:47;;;;;;;;;0.67;0.67;;;;;26.36;52.79;100418.50;5036729;28;45481;-74
2023/08/03 11:02:15;;;;;;;;;1.00;1.00;;;;;26.98;52.11;100420.59;5037607;28;45263;-73
2023/08/03 11:04:42;;;;;;;;;1.67;1.00;;;;;27.42;51.56;100400.09;5036689;28;45512;-73
2023/08/03 11:07:12;;;;;;;;;3.00;2.67;;;;;27.61;50.72;100416.28;5036928;28;45540;-74
2023/08/03 11:09:38;;;;;;;;;6.00;6.00;;;;;27.86;48.96;100389.25;5036851;28;45553;-73
2023/08/03 11:12:06;;;;;;;;;6.67;6.33;;;;;28.42;47.75;100415.38;5035614;28;45518;-74
2023/08/03 11:14:32;;;;;;;;;3.00;3.00;;;;;28.63;46.91;100401.88;5036603;28;45521;-74
2023/08/03 11:16:58;;;;;;;;;4.00;3.00;;;;;29.07;47.90;100415.03;5036619;28;45430;-74
2023/08/03 11:19:24;;;;;;;;;7.00;6.67;;;;;29.33;46.15;100414.63;5035929;28;45394;-74
2023/08/03 11:21:49;;;;;;;;;3.33;2.67;;;;;29.46;46.69;100412.16;5035704;28;45624;-74
2023/08/03 11:24:15;;;;;;;;;1.33;1.33;;;;;29.71;45.11;100408.25;5035071;28;45503;-74